Time;durP1;ratioP1;P1;durP2;ratioP2;P2;SDS_P1;SDS_P2;PMS_P1;PMS_P2;Temp;Humidity;BMP_temperature;BMP_pressure;BME280_temperature;BME280_humidity;BME280_pressure;Samples;Min_cycle;Max_cycle;Signal;HPM_P1;HPM_P2
2021/05/31 00:00:36;;;;;;;7.20;6.00;;;14.60;99.90;;;;;;5053978;28;20184;-73
2021/05/31 00:03:01;;;;;;;6.67;6.00;;;14.70;99.90;;;;;;5053620;28;20264;-74
2021/05/31 00:05:27;;;;;;;8.00;5.50;;;14.60;99.90;;;;;;5053628;28;20973;-72
2021/05/31 00:07:54;;;;;;;7.13;6.43;;;14.70;99.90;;;;;;5054100;28;20239;-71
2021/05/31 00:10:19;;;;;;;6.80;5.40;;;14.70;99.90;;;;;;5053371;28;20199;-72
2021/05/31 00:12:45;;;;;;;6.60;5.83;;;14.70;99.90;;;;;;5053651;28;20408;-72
2021/05/31 00:15:11;;;;;;;7.07;6.30;;;14.60;99.90;;;;;;5054205;28;20241;-72
2021/05/31 00:17:37;;;;;;;6.40;5.90;;;14.60;99.90;;;;;;5054809;28;20257;-73
2021/05/31 00:20:09;;;;;;;6.97;5.90;;;14.50;99.90;;;;;;5054816;28;20218;-74
2021/05/31 00:22:35;;;;;;;6.97;6.00;;;14.50;99.90;;;;;;5057814;28;20503;-72
2021/05/31 00:25:01;;;;;;;5.57;5.07;;;14.50;99.90;;;;;;5060639;28;20522;-73
2021/05/31 00:27:26;;;;;;;6.03;5.23;;;14.50;99.90;;;;;;5061395;28;20200;-73
2021/05/31 00:29:52;;;;;;;6.33;5.30;;;14.40;99.90;;;;;;5063310;28;20167;-73
2021/05/31 00:32:19;;;;;;;6.50;5.50;;;14.40;99.90;;;;;;5060513;28;20186;-73
2021/05/31 00:34:45;;;;;;;6.50;5.13;;;14.30;99.90;;;;;;5062373;28;20252;-73
2021/05/31 00:37:10;;;;;;;6.77;5.20;;;14.20;99.90;;;;;;5066798;28;20476;-72
2021/05/31 00:39:36;;;;;;;5.97;5.37;;;14.20;99.90;;;;;;5067428;28;20198;-73
2021/05/31 00:42:02;;;;;;;6.90;5.63;;;14.20;99.90;;;;;;5062128;28;20190;-73
2021/05/31 00:44:28;;;;;;;8.33;5.90;;;14.20;99.90;;;;;;5058947;28;20289;-73
2021/05/31 00:46:54;;;;;;;6.73;5.20;;;14.20;99.90;;;;;;5057251;28;20575;-72
2021/05/31 00:49:23;;;;;;;5.37;4.87;;;14.30;99.90;;;;;;5058646;28;20440;-71
2021/05/31 00:51:49;;;;;;;6.43;5.40;;;14.30;99.90;;;;;;5057417;28;20412;-72
2021/05/31 00:54:15;;;;;;;6.03;5.40;;;14.20;99.90;;;;;;5057598;28;20462;-72
2021/05/31 00:56:42;;;;;;;6.97;6.27;;;14.20;99.90;;;;;;5056751;28;20459;-72
2021/05/31 00:59:11;;;;;;;7.87;5.70;;;14.20;99.90;;;;;;5056853;28;20789;-72
2021/05/31 01:01:38;;;;;;;7.13;5.93;;;14.20;99.90;;;;;;5057459;28;20472;-72
2021/05/31 01:04:04;;;;;;;6.00;5.40;;;14.00;99.90;;;;;;5057044;28;20425;-72
2021/05/31 01:06:33;;;;;;;5.90;5.37;;;14.00;99.90;;;;;;5056861;28;20431;-72
2021/05/31 01:09:14;;;;;;;6.40;5.83;;;14.00;99.90;;;;;;5057195;28;20420;-72
2021/05/31 01:12:05;;;;;;;6.30;5.70;;;14.00;99.90;;;;;;5057963;28;20395;-72
2021/05/31 01:14:57;;;;;;;6.63;5.83;;;14.10;99.90;;;;;;5059589;28;20435;-71
2021/05/31 01:17:47;;;;;;;5.77;5.27;;;14.10;99.90;;;;;;5060878;28;20405;-72
2021/05/31 01:20:41;;;;;;;8.60;6.00;;;14.10;99.90;;;;;;5056528;28;20420;-72
2021/05/31 01:23:14;;;;;;;6.72;5.70;;;14.10;99.90;;;;;;5055892;28;20420;-73
2021/05/31 01:26:04;;;;;;;6.43;5.83;;;14.10;99.90;;;;;;5070319;28;20209;-72
2021/05/31 01:28:53;;;;;;;6.33;5.70;;;14.00;99.90;;;;;;5056626;28;20454;-72
2021/05/31 01:31:45;;;;;;;5.80;5.30;;;14.00;99.90;;;;;;5056237;28;20437;-72
2021/05/31 01:34:14;;;;;;;7.43;6.77;;;14.00;99.90;;;;;;5055207;28;20436;-72
2021/05/31 01:36:44;;;;;;;7.33;5.90;;;14.00;99.90;;;;;;5056741;28;20440;-72
2021/05/31 01:39:14;;;;;;;11.10;6.17;;;13.90;99.90;;;;;;5056641;28;20398;-72
2021/05/31 01:41:41;;;;;;;6.87;6.17;;;13.90;99.90;;;;;;5055708;28;20420;-72
2021/05/31 01:44:07;;;;;;;7.37;5.77;;;13.80;99.90;;;;;;5055572;28;20460;-72
2021/05/31 01:46:34;;;;;;;5.93;5.33;;;13.80;99.90;;;;;;5055778;28;20787;-72
2021/05/31 01:49:00;;;;;;;6.77;6.10;;;13.80;99.90;;;;;;5055990;28;20416;-72
2021/05/31 01:51:26;;;;;;;6.73;6.03;;;13.80;99.90;;;;;;5055332;28;20782;-72
2021/05/31 01:53:52;;;;;;;6.27;5.27;;;13.70;99.90;;;;;;5055760;28;20819;-72
2021/05/31 01:56:19;;;;;;;8.13;7.30;;;13.60;99.90;;;;;;5056078;28;20871;-72
2021/05/31 01:58:45;;;;;;;6.90;6.30;;;13.60;99.90;;;;;;5055551;28;20757;-72
2021/05/31 02:01:11;;;;;;;6.90;6.23;;;13.60;99.90;;;;;;5055978;28;20648;-72
2021/05/31 02:03:38;;;;;;;8.90;5.93;;;13.60;99.90;;;;;;5055557;28;20428;-72
2021/05/31 02:06:04;;;;;;;9.60;6.33;;;13.60;99.90;;;;;;5056192;28;20459;-72
2021/05/31 02:08:30;;;;;;;7.43;6.27;;;13.60;99.90;;;;;;5055705;28;20909;-72
2021/05/31 02:11:01;;;;;;;7.17;6.20;;;13.60;99.90;;;;;;5054403;28;20498;-72
2021/05/31 02:13:29;;;;;;;7.07;6.37;;;13.50;99.90;;;;;;5055022;28;20170;-71
2021/05/31 02:16:12;;;;;;;7.27;6.43;;;13.50;99.90;;;;;;5055586;28;20429;-72
2021/05/31 02:18:44;;;;;;;9.63;5.93;;;13.50;99.90;;;;;;5055264;28;20431;-71
2021/05/31 02:21:14;;;;;;;6.33;5.60;;;13.50;99.90;;;;;;5055569;28;20723;-72
2021/05/31 02:23:41;;;;;;;6.60;6.00;;;13.50;99.90;;;;;;5055108;28;20486;-71
2021/05/31 02:26:09;;;;;;;8.20;5.80;;;13.50;99.90;;;;;;5055934;28;20468;-71
2021/05/31 02:28:36;;;;;;;6.87;6.17;;;13.40;99.90;;;;;;5055307;28;20890;-71
2021/05/31 02:31:07;;;;;;;6.43;5.83;;;13.40;99.90;;;;;;5055027;28;20408;-71
2021/05/31 02:33:33;;;;;;;6.00;5.40;;;13.40;99.90;;;;;;5054805;28;20431;-71
2021/05/31 02:35:59;;;;;;;5.90;5.40;;;13.40;99.90;;;;;;5055086;28;20433;-71
2021/05/31 02:38:24;;;;;;;6.33;5.73;;;13.40;99.90;;;;;;5055339;28;20803;-71
2021/05/31 02:40:50;;;;;;;6.00;5.40;;;13.30;99.90;;;;;;5055605;28;20420;-72
2021/05/31 02:43:16;;;;;;;6.33;5.63;;;13.30;99.90;;;;;;5055095;28;20187;-71
2021/05/31 02:45:41;;;;;;;6.23;5.50;;;13.20;99.90;;;;;;5054273;28;20206;-72
2021/05/31 02:48:07;;;;;;;7.93;6.40;;;13.20;99.90;;;;;;5055019;28;20512;-71
2021/05/31 02:50:33;;;;;;;6.97;6.13;;;13.10;99.90;;;;;;5055071;28;20258;-72
2021/05/31 02:52:59;;;;;;;6.30;5.60;;;13.10;99.90;;;;;;5053354;28;20503;-71
2021/05/31 02:55:27;;;;;;;6.30;5.73;;;13.10;99.90;;;;;;5054516;28;20198;-72
2021/05/31 02:57:53;;;;;;;6.23;5.63;;;13.10;99.90;;;;;;5054802;28;20420;-72
2021/05/31 03:00:22;;;;;;;6.50;5.90;;;13.00;99.90;;;;;;5054558;28;20424;-72
2021/05/31 03:02:48;;;;;;;5.93;5.20;;;13.00;99.90;;;;;;5054194;28;20429;-72
2021/05/31 03:05:19;;;;;;;8.23;6.13;;;13.00;99.90;;;;;;5047716;28;20457;-73
2021/05/31 03:07:46;;;;;;;6.57;5.63;;;13.00;99.90;;;;;;5043982;28;20807;-72
2021/05/31 03:10:12;;;;;;;8.80;5.73;;;13.00;99.90;;;;;;5034795;28;20875;-71
2021/05/31 03:12:39;;;;;;;7.20;6.50;;;13.00;99.90;;;;;;5034432;28;20394;-72
2021/05/31 03:15:09;;;;;;;6.33;5.50;;;12.90;99.90;;;;;;5034562;28;20425;-72
2021/05/31 03:17:35;;;;;;;7.17;5.60;;;12.90;99.90;;;;;;5049602;28;20423;-72
2021/05/31 03:20:01;;;;;;;8.00;5.40;;;12.90;99.90;;;;;;5054408;28;20421;-72
2021/05/31 03:22:26;;;;;;;6.43;5.80;;;12.90;99.90;;;;;;5053925;28;20416;-74
2021/05/31 03:24:52;;;;;;;6.40;5.13;;;12.90;99.90;;;;;;5054093;28;20798;-73
2021/05/31 03:27:18;;;;;;;8.07;5.30;;;12.80;99.90;;;;;;5053689;28;20173;-73
2021/05/31 03:29:43;;;;;;;6.97;5.87;;;12.80;99.90;;;;;;5054504;28;20323;-72
2021/05/31 03:32:09;;;;;;;7.10;5.80;;;12.80;99.90;;;;;;5053947;28;20419;-73
2021/05/31 03:34:34;;;;;;;5.80;5.30;;;12.80;99.90;;;;;;5053842;28;20528;-73
2021/05/31 03:37:00;;;;;;;7.10;5.20;;;12.80;99.90;;;;;;5054051;28;20549;-73
2021/05/31 03:39:26;;;;;;;6.40;5.80;;;12.70;99.90;;;;;;5055327;28;20186;-72
2021/05/31 03:41:52;;;;;;;7.40;6.27;;;12.80;99.90;;;;;;5054131;28;20194;-72
2021/05/31 03:44:17;;;;;;;8.17;5.83;;;12.80;99.90;;;;;;5053486;28;20239;-72
2021/05/31 03:46:43;;;;;;;6.73;5.93;;;12.70;99.90;;;;;;5053810;28;20396;-72
2021/05/31 03:49:09;;;;;;;7.20;5.70;;;12.80;99.90;;;;;;5053490;28;20421;-72
2021/05/31 03:51:34;;;;;;;6.73;6.13;;;12.80;99.90;;;;;;5050864;28;20190;-72
2021/05/31 03:54:00;;;;;;;7.80;6.00;;;12.80;99.90;;;;;;5039422;28;20175;-72
2021/05/31 03:56:25;;;;;;;7.10;6.00;;;12.80;99.90;;;;;;5034033;28;20191;-72
2021/05/31 03:58:52;;;;;;;6.73;6.13;;;12.70;99.90;;;;;;5036821;28;20557;-72
2021/05/31 04:01:18;;;;;;;6.80;5.97;;;12.70;99.90;;;;;;5053850;28;20158;-73
2021/05/31 04:03:44;;;;;;;6.90;6.07;;;12.70;99.90;;;;;;5047334;28;20427;-72
2021/05/31 04:11:56;;;;;;;7.27;5.60;;;12.70;99.90;;;;;;5051963;28;20424;-73
2021/05/31 04:14:18;;;;;;;7.67;6.10;;;12.70;99.90;;;;;;5054517;28;20427;-73
2021/05/31 04:16:46;;;;;;;8.53;5.70;;;12.70;99.90;;;;;;5042974;28;21408;-72
2021/05/31 04:19:13;;;;;;;6.20;5.60;;;12.70;99.90;;;;;;5054704;28;20409;-73
2021/05/31 04:21:41;;;;;;;6.77;6.17;;;12.70;99.90;;;;;;5059905;28;20503;-73
2021/05/31 04:24:07;;;;;;;7.17;6.20;;;12.70;99.90;;;;;;5067142;28;20416;-72
2021/05/31 04:26:34;;;;;;;7.80;6.50;;;12.70;99.90;;;;;;5066331;28;20451;-72
2021/05/31 04:29:00;;;;;;;8.33;6.57;;;12.70;99.90;;;;;;5057446;28;20654;-73
2021/05/31 04:31:26;;;;;;;7.43;6.47;;;12.70;99.90;;;;;;5056476;28;20416;-72
2021/05/31 04:33:51;;;;;;;8.90;6.73;;;12.60;99.90;;;;;;5064940;28;20415;-73
2021/05/31 04:36:18;;;;;;;7.03;6.33;;;12.60;99.90;;;;;;5073147;28;20659;-74
2021/05/31 04:38:44;;;;;;;8.20;6.87;;;12.60;99.90;;;;;;5055540;28;20182;-72
2021/05/31 04:41:09;;;;;;;10.47;9.47;;;12.50;99.90;;;;;;5051990;28;20432;-73
2021/05/31 04:43:35;;;;;;;10.53;7.27;;;12.60;99.90;;;;;;5053628;28;20494;-72
2021/05/31 04:46:02;;;;;;;8.33;6.70;;;12.60;99.90;;;;;;5058306;28;20194;-72
2021/05/31 04:48:27;;;;;;;8.17;6.80;;;12.70;99.90;;;;;;5058244;28;20198;-73
2021/05/31 04:50:56;;;;;;;9.40;7.73;;;12.70;99.90;;;;;;5051758;28;20405;-72
2021/05/31 04:53:26;;;;;;;9.23;7.63;;;12.70;99.90;;;;;;5051574;28;20179;-73
2021/05/31 04:55:53;;;;;;;8.57;6.93;;;12.70;99.90;;;;;;5052532;28;20871;-74
2021/05/31 04:58:19;;;;;;;7.90;6.73;;;12.70;99.90;;;;;;5051594;28;20490;-74
2021/05/31 05:00:45;;;;;;;8.23;6.70;;;12.80;99.90;;;;;;5050958;28;20440;-74
2021/05/31 05:03:11;;;;;;;10.67;7.40;;;12.80;99.90;;;;;;5058580;28;20165;-74
2021/05/31 05:05:36;;;;;;;10.00;7.40;;;12.90;99.90;;;;;;5072781;28;20660;-74
2021/05/31 05:08:02;;;;;;;10.13;7.40;;;12.90;99.90;;;;;;5073194;28;20189;-73
2021/05/31 05:10:28;;;;;;;7.63;6.77;;;13.00;99.90;;;;;;5068963;28;20659;-74
2021/05/31 05:12:53;;;;;;;7.60;6.90;;;12.90;99.90;;;;;;5056836;28;20419;-73
2021/05/31 05:15:21;;;;;;;7.80;7.00;;;13.00;99.90;;;;;;5056315;28;20190;-73
2021/05/31 05:17:48;;;;;;;16.33;8.73;;;13.10;99.90;;;;;;5057687;28;20185;-73
2021/05/31 05:20:16;;;;;;;11.30;8.10;;;13.10;99.90;;;;;;5057105;28;20790;-73
2021/05/31 05:22:42;;;;;;;10.43;9.30;;;13.20;99.90;;;;;;5056888;28;20431;-73
2021/05/31 05:25:09;;;;;;;10.20;9.30;;;13.30;99.90;;;;;;5055080;28;20467;-73
2021/05/31 05:27:35;;;;;;;11.87;10.60;;;13.30;99.90;;;;;;5056687;28;20951;-74
2021/05/31 05:30:02;;;;;;;10.93;9.90;;;13.40;99.90;;;;;;5056060;28;20413;-73
2021/05/31 05:32:28;;;;;;;10.30;9.33;;;13.50;99.90;;;;;;5058235;28;20520;-74
2021/05/31 05:34:58;;;;;;;10.20;9.20;;;13.50;99.90;;;;;;5058975;28;20429;-73
2021/05/31 05:37:29;;;;;;;11.03;9.90;;;13.60;99.90;;;;;;5062485;28;20166;-73
2021/05/31 05:40:09;;;;;;;10.10;9.10;;;13.60;99.90;;;;;;5076299;28;20434;-73
2021/05/31 05:47:51;;;;;;;11.27;10.07;;;13.80;99.90;;;;;;5057159;28;20435;-73
2021/05/31 05:50:21;;;;;;;10.07;9.07;;;13.90;99.90;;;;;;5056197;28;20190;-73
2021/05/31 05:52:50;;;;;;;10.73;9.33;;;14.00;99.90;;;;;;5055666;28;20158;-73
2021/05/31 05:55:16;;;;;;;10.80;9.80;;;14.00;99.90;;;;;;5055644;28;20475;-73
2021/05/31 05:57:42;;;;;;;9.90;8.90;;;14.10;99.90;;;;;;5055733;28;20508;-73
2021/05/31 06:00:15;;;;;;;10.00;8.00;;;14.20;99.90;;;;;;5055757;28;20485;-72
2021/05/31 06:02:41;;;;;;;9.00;8.10;;;14.30;99.90;;;;;;5055522;28;20197;-72
2021/05/31 06:05:08;;;;;;;9.40;8.10;;;14.40;99.90;;;;;;5055330;28;20969;-73
2021/05/31 06:07:34;;;;;;;8.80;8.00;;;14.40;99.90;;;;;;5055447;28;20405;-72
2021/05/31 06:10:00;;;;;;;11.43;7.60;;;14.50;99.90;;;;;;5055409;28;20409;-72
2021/05/31 06:12:26;;;;;;;8.00;7.10;;;14.60;99.90;;;;;;5057162;28;20174;-73
2021/05/31 06:14:52;;;;;;;11.10;8.70;;;14.70;99.90;;;;;;5055479;28;20441;-72
2021/05/31 06:17:18;;;;;;;9.43;8.30;;;14.80;99.90;;;;;;5054746;28;20428;-73
2021/05/31 06:19:43;;;;;;;12.60;9.10;;;14.80;99.90;;;;;;5055456;28;20178;-74
2021/05/31 06:22:09;;;;;;;10.07;9.07;;;14.90;99.90;;;;;;5054945;28;20206;-73
2021/05/31 06:24:34;;;;;;;14.10;9.50;;;14.90;99.90;;;;;;5054974;28;20206;-73
2021/05/31 06:27:00;;;;;;;11.10;9.40;;;15.00;99.90;;;;;;5055264;28;20212;-72
2021/05/31 06:29:27;;;;;;;11.03;9.70;;;15.10;99.90;;;;;;5055174;28;20174;-72
2021/05/31 06:31:52;;;;;;;10.60;9.60;;;15.20;99.90;;;;;;5054168;28;20631;-72
2021/05/31 06:34:18;;;;;;;11.73;10.07;;;15.30;99.90;;;;;;5055808;28;20443;-73
2021/05/31 06:36:46;;;;;;;12.23;10.23;;;15.40;99.90;;;;;;5054642;28;20186;-74
2021/05/31 06:39:11;;;;;;;10.57;9.47;;;15.50;99.90;;;;;;5054651;28;20785;-73
2021/05/31 06:41:38;;;;;;;10.30;9.30;;;15.60;99.90;;;;;;5055003;28;20523;-73
2021/05/31 06:44:07;;;;;;;12.03;10.80;;;15.70;99.90;;;;;;5053474;28;20178;-72
2021/05/31 06:46:33;;;;;;;10.43;9.40;;;15.80;99.90;;;;;;5054650;28;20836;-72
2021/05/31 06:48:59;;;;;;;9.27;8.47;;;15.90;99.90;;;;;;5054933;28;20405;-72
2021/05/31 06:51:24;;;;;;;10.43;8.20;;;16.00;99.90;;;;;;5055401;28;20183;-72
2021/05/31 06:53:50;;;;;;;10.17;8.80;;;16.10;99.90;;;;;;5054629;28;20189;-72
2021/05/31 06:56:16;;;;;;;14.83;8.13;;;16.30;99.90;;;;;;5055101;28;20277;-73
2021/05/31 06:58:42;;;;;;;7.07;6.37;;;16.40;99.90;;;;;;5054116;28;20721;-73
2021/05/31 07:01:10;;;;;;;8.10;6.50;;;16.50;99.90;;;;;;5054467;28;20518;-72
2021/05/31 07:03:36;;;;;;;6.87;6.17;;;16.60;99.90;;;;;;5054475;28;20423;-72
2021/05/31 07:06:03;;;;;;;6.63;5.63;;;16.70;99.90;;;;;;5055494;28;20460;-72
2021/05/31 07:08:30;;;;;;;7.20;5.90;;;16.80;99.90;;;;;;5054396;28;20783;-73
2021/05/31 07:10:57;;;;;;;6.50;5.33;;;16.90;99.90;;;;;;5054919;28;20409;-73
2021/05/31 07:13:23;;;;;;;6.03;5.43;;;17.10;99.60;;;;;;5054301;28;20420;-72
2021/05/31 07:15:51;;;;;;;6.50;5.87;;;17.20;99.10;;;;;;5054686;28;20824;-72
2021/05/31 07:18:17;;;;;;;6.13;5.17;;;17.30;98.60;;;;;;5054281;28;20444;-73
2021/05/31 07:20:43;;;;;;;6.72;5.40;;;17.40;98.20;;;;;;5053906;28;20434;-71
2021/05/31 07:23:09;;;;;;;6.90;5.37;;;17.50;97.90;;;;;;5054016;28;20253;-71
2021/05/31 07:25:35;;;;;;;6.20;5.63;;;17.60;97.40;;;;;;5054014;28;20715;-72
2021/05/31 07:28:00;;;;;;;6.60;4.90;;;17.70;97.30;;;;;;5054206;28;20444;-72
2021/05/31 07:30:26;;;;;;;6.37;5.77;;;17.80;96.90;;;;;;5053818;28;20178;-72
2021/05/31 07:32:52;;;;;;;8.73;5.20;;;18.00;96.80;;;;;;5053291;28;20170;-72
2021/05/31 07:35:17;;;;;;;6.37;5.77;;;18.10;96.60;;;;;;5054808;28;20251;-72
2021/05/31 07:37:43;;;;;;;6.23;5.30;;;18.20;95.80;;;;;;5063726;28;20557;-71
2021/05/31 07:40:11;;;;;;;6.10;5.50;;;18.30;95.50;;;;;;5064965;28;20186;-72
2021/05/31 07:42:38;;;;;;;6.63;5.30;;;18.40;95.50;;;;;;5054957;28;20170;-73
2021/05/31 07:45:05;;;;;;;5.07;4.67;;;18.50;95.40;;;;;;5058195;28;20556;-72
2021/05/31 07:47:31;;;;;;;6.00;5.40;;;18.70;95.30;;;;;;5059503;28;20436;-72
2021/05/31 07:49:57;;;;;;;5.53;5.03;;;18.80;95.00;;;;;;5060967;28;20458;-73
2021/05/31 07:52:27;;;;;;;6.87;5.67;;;18.90;94.60;;;;;;5054526;28;20174;-72
2021/05/31 07:54:53;;;;;;;6.90;4.70;;;19.10;94.10;;;;;;5054083;28;20229;-73
2021/05/31 07:57:21;;;;;;;5.70;5.10;;;19.20;93.70;;;;;;5054212;28;20408;-72
2021/05/31 07:59:47;;;;;;;13.53;5.53;;;19.30;93.20;;;;;;5054633;28;20276;-71
2021/05/31 08:02:13;;;;;;;9.23;5.33;;;19.40;92.90;;;;;;5053490;28;20424;-71
2021/05/31 08:04:39;;;;;;;5.17;4.63;;;19.40;92.20;;;;;;5053474;28;20958;-71
2021/05/31 08:07:05;;;;;;;6.57;5.20;;;19.50;91.70;;;;;;5054519;28;20442;-71
2021/05/31 08:09:31;;;;;;;5.87;5.23;;;19.70;91.40;;;;;;5053836;28;20201;-72
2021/05/31 08:12:23;;;;;;;6.67;5.63;;;19.80;90.90;;;;;;5053340;28;20914;-72
2021/05/31 08:14:49;;;;;;;5.10;4.60;;;19.90;90.90;;;;;;5053468;28;20682;-72
2021/05/31 08:17:14;;;;;;;5.47;5.00;;;20.10;90.20;;;;;;5053904;28;20417;-71
2021/05/31 08:19:40;;;;;;;7.47;5.53;;;20.20;90.00;;;;;;5054117;28;20185;-72
2021/05/31 08:22:06;;;;;;;6.07;5.00;;;20.20;87.80;;;;;;5053010;28;20182;-71
2021/05/31 08:24:32;;;;;;;4.83;4.40;;;20.20;86.50;;;;;;5053679;28;20186;-71
2021/05/31 08:26:58;;;;;;;6.27;4.50;;;20.20;87.20;;;;;;5053835;28;20405;-72
2021/05/31 08:29:24;;;;;;;6.13;5.00;;;20.30;86.50;;;;;;5054131;28;20470;-71
2021/05/31 08:31:51;;;;;;;5.40;4.90;;;20.40;86.70;;;;;;5054037;28;20181;-71
2021/05/31 08:34:17;;;;;;;5.50;4.97;;;20.50;85.90;;;;;;5053228;28;20182;-72
2021/05/31 08:36:44;;;;;;;7.10;5.10;;;20.50;84.60;;;;;;5055867;28;20762;-71
2021/05/31 08:39:11;;;;;;;6.10;5.30;;;20.60;84.20;;;;;;5074054;28;20935;-72
2021/05/31 08:41:37;;;;;;;6.20;4.93;;;20.60;81.30;;;;;;5073613;28;20407;-71
2021/05/31 08:44:03;;;;;;;6.50;4.70;;;20.70;82.10;;;;;;5065894;28;20435;-72
2021/05/31 08:46:29;;;;;;;5.40;4.90;;;20.70;80.90;;;;;;5057590;28;20447;-72
2021/05/31 08:48:57;;;;;;;5.93;5.33;;;20.50;81.40;;;;;;5059453;28;20408;-72
2021/05/31 08:51:22;;;;;;;5.03;4.60;;;20.60;81.40;;;;;;5058798;28;20206;-72
2021/05/31 08:53:48;;;;;;;5.30;4.80;;;20.80;80.50;;;;;;5055772;28;20442;-72
2021/05/31 08:56:14;;;;;;;6.17;5.30;;;20.90;80.90;;;;;;5057237;28;20198;-72
2021/05/31 08:58:40;;;;;;;9.27;5.23;;;21.10;80.40;;;;;;5057278;28;20489;-72
2021/05/31 09:01:05;;;;;;;4.90;4.43;;;21.10;79.10;;;;;;5057585;28;20793;-72
2021/05/31 09:03:32;;;;;;;6.47;5.40;;;21.30;78.10;;;;;;5056836;28;20171;-72
2021/05/31 09:06:00;;;;;;;9.10;5.47;;;21.40;78.10;;;;;;5056613;28;20271;-72
2021/05/31 09:08:25;;;;;;;5.23;4.73;;;21.40;76.30;;;;;;5056983;28;20420;-72
2021/05/31 09:10:59;;;;;;;5.73;5.20;;;21.50;77.10;;;;;;5057344;28;20412;-72
2021/05/31 09:13:28;;;;;;;5.80;5.27;;;21.50;77.50;;;;;;5056667;28;20178;-72
2021/05/31 09:16:09;;;;;;;5.90;5.30;;;21.70;77.90;;;;;;5056475;28;20480;-71
2021/05/31 09:18:37;;;;;;;6.53;5.80;;;21.90;76.90;;;;;;5056046;28;20428;-70
2021/05/31 09:21:13;;;;;;;5.93;5.23;;;21.90;78.00;;;;;;5057049;28;20408;-71
2021/05/31 09:23:39;;;;;;;5.60;4.80;;;21.90;77.60;;;;;;5056189;28;20406;-71
2021/05/31 09:26:06;;;;;;;7.27;5.20;;;21.90;78.90;;;;;;5056685;28;20535;-71
2021/05/31 09:28:31;;;;;;;6.60;6.00;;;21.80;76.40;;;;;;5056834;28;20151;-70
2021/05/31 09:30:57;;;;;;;6.40;5.73;;;21.60;75.40;;;;;;5056104;28;20427;-71
2021/05/31 09:33:23;;;;;;;7.83;5.57;;;21.40;77.20;;;;;;5056551;28;20166;-71
2021/05/31 09:35:50;;;;;;;5.83;5.20;;;21.50;80.40;;;;;;5057176;28;20198;-71
2021/05/31 09:38:17;;;;;;;6.07;5.03;;;21.70;81.10;;;;;;5090019;28;20181;-71
2021/05/31 09:40:56;;;;;;;5.80;5.30;;;21.80;78.30;;;;;;5085339;28;20427;-71
2021/05/31 09:43:24;;;;;;;8.50;5.70;;;22.00;78.70;;;;;;5059517;28;20411;-71
2021/05/31 09:45:50;;;;;;;5.57;5.07;;;22.00;74.70;;;;;;5054839;28;20471;-71
2021/05/31 09:48:16;;;;;;;5.47;4.97;;;21.80;73.80;;;;;;5056157;28;20421;-70
2021/05/31 09:50:53;;;;;;;5.90;5.30;;;21.80;75.50;;;;;;5056402;28;20678;-71
2021/05/31 09:53:19;;;;;;;5.43;4.93;;;22.00;76.90;;;;;;5055659;28;20484;-71
2021/05/31 09:55:47;;;;;;;5.30;4.80;;;22.10;76.40;;;;;;5054185;28;20523;-71
2021/05/31 09:58:15;;;;;;;6.93;5.50;;;22.10;73.30;;;;;;5055737;28;20729;-70
2021/05/31 10:00:55;;;;;;;7.40;5.37;;;22.10;72.60;;;;;;5056180;28;20918;-70
2021/05/31 10:03:39;;;;;;;8.17;4.90;;;22.10;71.30;;;;;;5055578;28;20773;-71
2021/05/31 10:06:13;;;;;;;5.30;4.83;;;22.10;74.90;;;;;;5055627;28;20543;-71
2021/05/31 10:08:42;;;;;;;5.20;4.80;;;22.20;73.60;;;;;;5056339;28;20797;-71
2021/05/31 10:11:08;;;;;;;6.60;5.20;;;22.20;71.70;;;;;;5056014;28;20489;-70
2021/05/31 10:13:37;;;;;;;6.67;5.20;;;22.30;74.40;;;;;;5054079;28;20817;-70
2021/05/31 10:16:05;;;;;;;5.90;5.27;;;22.30;74.70;;;;;;5055359;28;20505;-71
2021/05/31 10:18:31;;;;;;;4.80;4.40;;;22.20;71.70;;;;;;5056035;28;20478;-71
2021/05/31 10:20:58;;;;;;;7.10;4.70;;;22.00;70.60;;;;;;5056349;28;20408;-71
2021/05/31 10:23:24;;;;;;;5.37;4.90;;;22.00;71.10;;;;;;5056014;28;20470;-70
2021/05/31 10:25:57;;;;;;;7.00;4.43;;;22.10;72.10;;;;;;5053573;28;20472;-71
2021/05/31 10:28:27;;;;;;;5.70;4.70;;;22.20;69.30;;;;;;5036458;28;20405;-71
2021/05/31 10:30:59;;;;;;;6.83;5.10;;;22.00;66.60;;;;;;5035845;28;20520;-71
2021/05/31 10:33:25;;;;;;;6.17;5.07;;;21.80;72.50;;;;;;5036032;28;20503;-71
2021/05/31 10:35:53;;;;;;;5.27;4.77;;;21.70;72.90;;;;;;5035204;28;20955;-71
2021/05/31 10:38:23;;;;;;;7.00;6.30;;;21.70;73.30;;;;;;5051772;28;20175;-70
2021/05/31 10:40:53;;;;;;;5.13;4.70;;;21.80;73.60;;;;;;5055586;28;20921;-71
2021/05/31 10:43:21;;;;;;;5.97;5.27;;;21.80;74.60;;;;;;5055283;28;20958;-71
2021/05/31 10:45:49;;;;;;;5.47;4.97;;;22.00;74.70;;;;;;5055315;28;20472;-71
2021/05/31 10:48:16;;;;;;;6.33;4.90;;;22.10;74.60;;;;;;5055200;28;20397;-70
2021/05/31 10:50:49;;;;;;;5.67;5.13;;;22.30;75.30;;;;;;5055720;28;20413;-72
2021/05/31 10:53:18;;;;;;;8.23;4.90;;;22.30;74.50;;;;;;5055066;28;20401;-71
2021/05/31 10:56:02;;;;;;;6.10;5.43;;;22.20;74.80;;;;;;5055433;28;20941;-70
2021/05/31 10:58:47;;;;;;;6.20;5.20;;;22.10;74.00;;;;;;5055343;28;20941;-71
2021/05/31 11:01:18;;;;;;;6.37;5.10;;;21.90;74.70;;;;;;5055522;28;20389;-71
2021/05/31 11:04:10;;;;;;;6.47;5.33;;;21.90;73.30;;;;;;5056185;28;20399;-70
2021/05/31 11:06:39;;;;;;;7.30;5.30;;;21.90;72.70;;;;;;5061520;28;20429;-70
2021/05/31 11:09:04;;;;;;;8.93;5.57;;;21.90;73.10;;;;;;5062988;28;20444;-69
2021/05/31 11:11:48;;;;;;;7.50;5.30;;;21.90;72.70;;;;;;5061560;28;20416;-70
2021/05/31 11:14:15;;;;;;;6.70;4.93;;;22.10;73.10;;;;;;5056826;28;20190;-71
2021/05/31 11:17:10;;;;;;;7.40;5.00;;;22.10;71.30;;;;;;5056882;28;20417;-70
2021/05/31 11:19:42;;;;;;;8.03;5.90;;;22.00;71.90;;;;;;5056062;28;20523;-71
2021/05/31 11:22:20;;;;;;;6.27;5.20;;;22.00;71.70;;;;;;5057985;28;20835;-71
2021/05/31 11:24:51;;;;;;;5.40;4.83;;;22.10;71.80;;;;;;5058461;28;20480;-70
2021/05/31 11:27:20;;;;;;;4.73;4.33;;;22.10;70.30;;;;;;5042807;28;20486;-71
2021/05/31 11:29:46;;;;;;;4.67;4.23;;;22.00;66.70;;;;;;5059037;28;20498;-71
2021/05/31 11:32:12;;;;;;;4.73;4.00;;;21.90;66.20;;;;;;5055150;28;20428;-71
2021/05/31 11:34:38;;;;;;;5.77;4.90;;;22.00;67.50;;;;;;5056841;28;20197;-72
2021/05/31 11:37:03;;;;;;;5.27;4.77;;;22.00;67.90;;;;;;5053456;28;20516;-71
2021/05/31 11:39:33;;;;;;;6.20;5.27;;;22.00;68.20;;;;;;5038842;28;20472;-71
2021/05/31 11:41:59;;;;;;;5.10;4.70;;;22.00;68.90;;;;;;5054576;28;20683;-71
2021/05/31 11:44:28;;;;;;;5.37;4.87;;;22.00;68.80;;;;;;5061709;28;20511;-71
2021/05/31 11:47:02;;;;;;;4.63;4.20;;;22.10;68.30;;;;;;5062072;28;20174;-71
2021/05/31 11:49:30;;;;;;;5.53;4.50;;;22.10;68.50;;;;;;5060683;28;20835;-71
2021/05/31 11:52:07;;;;;;;5.00;4.60;;;22.00;66.70;;;;;;5053229;28;20452;-71
2021/05/31 11:54:36;;;;;;;9.57;5.60;;;21.90;67.60;;;;;;5053606;28;20526;-70
2021/05/31 11:57:05;;;;;;;8.23;5.53;;;21.90;69.80;;;;;;5035987;28;20424;-71
2021/05/31 11:59:39;;;;;;;5.17;4.67;;;21.90;72.70;;;;;;5034550;28;20571;-72
2021/05/31 12:02:06;;;;;;;7.27;5.20;;;22.00;71.10;;;;;;5037220;28;20440;-71
2021/05/31 12:04:32;;;;;;;5.63;5.13;;;22.10;71.70;;;;;;5054325;28;20467;-71
2021/05/31 12:07:11;;;;;;;8.37;5.40;;;21.90;68.50;;;;;;5054545;28;20409;-71
2021/05/31 12:09:42;;;;;;;5.83;4.70;;;22.00;67.90;;;;;;5054636;28;20249;-71
2021/05/31 12:12:16;;;;;;;5.13;4.73;;;22.00;68.10;;;;;;5054806;28;20491;-71
2021/05/31 12:14:44;;;;;;;5.03;4.53;;;21.90;66.50;;;;;;5054923;28;20455;-71
2021/05/31 12:17:12;;;;;;;5.20;4.70;;;21.90;67.10;;;;;;5055501;28;20413;-71
2021/05/31 12:19:39;;;;;;;5.20;4.70;;;21.80;67.50;;;;;;5057082;28;20519;-70
2021/05/31 12:22:06;;;;;;;4.97;4.50;;;21.80;67.70;;;;;;5057838;28;20452;-71
2021/05/31 12:24:34;;;;;;;4.23;3.60;;;21.90;66.80;;;;;;5056656;28;20455;-71
2021/05/31 12:27:01;;;;;;;5.60;4.60;;;21.80;67.60;;;;;;5057704;28;20440;-70
2021/05/31 12:29:41;;;;;;;6.33;4.90;;;21.80;68.70;;;;;;5054178;28;20404;-71
2021/05/31 12:32:10;;;;;;;5.00;4.50;;;21.90;69.80;;;;;;5052988;28;20499;-70
2021/05/31 12:34:37;;;;;;;5.20;4.70;;;22.00;68.00;;;;;;5052907;28;20244;-70
2021/05/31 12:37:07;;;;;;;6.40;4.80;;;22.00;68.10;;;;;;5058200;28;20408;-70
2021/05/31 12:39:33;;;;;;;5.47;4.50;;;22.00;67.60;;;;;;5074672;28;20483;-70
2021/05/31 12:42:04;;;;;;;5.50;4.87;;;22.00;67.80;;;;;;5073451;28;20428;-72
2021/05/31 12:44:30;;;;;;;7.00;6.37;;;22.10;68.90;;;;;;5070924;28;20443;-72
2021/05/31 12:47:19;;;;;;;5.80;5.30;;;22.10;69.10;;;;;;5048807;28;20425;-72
2021/05/31 12:49:54;;;;;;;5.87;4.90;;;22.20;68.20;;;;;;5035210;28;20397;-72
2021/05/31 12:52:31;;;;;;;6.33;4.70;;;22.20;67.50;;;;;;5034353;28;20406;-71
2021/05/31 12:55:06;;;;;;;4.80;4.40;;;22.20;67.90;;;;;;5034876;28;20413;-72
2021/05/31 12:57:33;;;;;;;5.10;4.60;;;22.10;68.30;;;;;;5053561;28;20470;-72
2021/05/31 12:59:59;;;;;;;5.90;5.30;;;22.20;69.50;;;;;;5055514;28;20425;-70
2021/05/31 13:02:25;;;;;;;5.40;4.87;;;22.20;69.20;;;;;;5068329;28;20588;-72